Terminal Aerodrome Forecast
Issued by NWS Des Moines, IA

Home | Current Version | Previous Version | Text Only | Print | Product List | Glossary On
Versions: 1 2 3 4 5 6 7 8 9 10 11 12 13 14 15 16 17 18 19
000
FTUS43 KDMX 031740
TAFDSM
TAF
KDSM 031740Z 0318/0418 16005KT P6SM SCT025 BKN200
     FM032200 14007KT P6SM VCSH BKN025 OVC060
     FM040200 13007KT 6SM -RASN BKN022 OVC035
     FM040500 15008KT 3SM -RASN OVC015
     FM041100 18008KT P6SM OVC008
     FM041500 23009KT P6SM OVC012=

USA.gov is the U.S. government's official web portal to all federal, state and local government web resources and services.